LGIR/HER METAR and TAF weather

Enter ICAO airport designator
Station Type Date Time Source
LGIR METAR 2022/08/16 19:50 UTC NOAA

LGIR 161950Z 17006KT CAVOK 23/17 Q1012 NOSIG


Station Type Date Time Source
LGIR Decoded METAR 2022/08/16 19:50 UTC NOAA

Heraklion Airport , Greece (LGIR) 35-20N 025-11E 39M
Aug 16, 2022 - 03:50 PM EDT / 2022.08.16 1950 UTC
Wind: from the S (170 degrees) at 7 MPH (6 KT):0
Visibility: greater than 7 mile(s):0
Temperature: 73 F (23 C)
Dew Point: 62 F (17 C)
Relative Humidity: 68%
Pressure (altimeter): 29.88 in. Hg (1012 hPa)
ob: LGIR 161950Z 17006KT CAVOK 23/17 Q1012 NOSIG
cycle: 20

Station Type Date Time Source
LGIR TAF 2022/08/16 18:12 UTC NOAA

TAF LGIR 161700Z 1618/1718 VRB05KT 9999 FEW020
BECMG 1706/1708 31013KT

Example: see airport list